Terminal Aerodrome Forecast
Issued by NWS Brownsville, TX

Home | Current Version | Previous Version | Text Only | Print | Product List | Glossary On
Versions: 1 2 3 4 5 6 7 8 9 10 11 12 13 14 15 16 17 18 19 20 21 22 23 24 25 26 27 28 29 30 31 32 33
585
FTUS44 KBRO 042340
TAFMFE
TAF
KMFE 042340Z 0500/0524 33011G17KT 4SM -RA BR OVC005
      TEMPO 0500/0504 2SM -RA BR
     FM051300 30013G19KT P6SM -RA OVC010
     FM051500 28012G18KT P6SM VCSH OVC020
     FM051600 27013KT P6SM BKN030
     FM051800 31011KT P6SM FEW035 BKN100=

USA.gov is the U.S. government's official web portal to all federal, state and local government web resources and services.